sensor_id;sensor_type;location;lat;lon;timestamp;P1;durP1;ratioP1;P2;durP2;ratioP2
39140;SDS011;24875;48.436;10.298;2024-02-26T00:00:24;5.03;;;2.20;;
39140;SDS011;24875;48.436;10.298;2024-02-26T00:02:51;3.80;;;2.10;;
39140;SDS011;24875;48.436;10.298;2024-02-26T00:05:17;5.73;;;2.90;;
39140;SDS011;24875;48.436;10.298;2024-02-26T00:07:45;7.03;;;2.40;;
39140;SDS011;24875;48.436;10.298;2024-02-26T00:10:12;5.33;;;2.30;;
39140;SDS011;24875;48.436;10.298;2024-02-26T00:12:39;4.80;;;2.53;;
39140;SDS011;24875;48.436;10.298;2024-02-26T00:15:06;4.30;;;2.23;;
39140;SDS011;24875;48.436;10.298;2024-02-26T00:17:34;8.03;;;3.07;;
39140;SDS011;24875;48.436;10.298;2024-02-26T00:20:00;5.60;;;2.57;;
39140;SDS011;24875;48.436;10.298;2024-02-26T00:22:29;4.67;;;2.83;;
39140;SDS011;24875;48.436;10.298;2024-02-26T00:24:57;3.97;;;2.53;;
39140;SDS011;24875;48.436;10.298;2024-02-26T00:27:23;7.77;;;2.90;;
39140;SDS011;24875;48.436;10.298;2024-02-26T00:29:50;5.73;;;2.90;;
39140;SDS011;24875;48.436;10.298;2024-02-26T00:32:16;4.93;;;2.63;;
39140;SDS011;24875;48.436;10.298;2024-02-26T00:34:43;7.33;;;2.50;;
39140;SDS011;24875;48.436;10.298;2024-02-26T00:37:09;7.23;;;3.03;;
39140;SDS011;24875;48.436;10.298;2024-02-26T00:39:36;6.60;;;2.83;;
39140;SDS011;24875;48.436;10.298;2024-02-26T00:42:04;5.10;;;2.87;;
39140;SDS011;24875;48.436;10.298;2024-02-26T00:44:31;6.00;;;3.20;;
39140;SDS011;24875;48.436;10.298;2024-02-26T00:46:57;6.37;;;2.67;;
39140;SDS011;24875;48.436;10.298;2024-02-26T00:49:24;5.03;;;2.57;;
39140;SDS011;24875;48.436;10.298;2024-02-26T00:51:51;3.57;;;2.60;;
39140;SDS011;24875;48.436;10.298;2024-02-26T00:54:17;5.17;;;2.97;;
39140;SDS011;24875;48.436;10.298;2024-02-26T00:56:44;5.27;;;3.37;;
39140;SDS011;24875;48.436;10.298;2024-02-26T00:59:12;8.30;;;3.20;;
39140;SDS011;24875;48.436;10.298;2024-02-26T01:01:39;4.00;;;2.50;;
39140;SDS011;24875;48.436;10.298;2024-02-26T01:04:05;5.07;;;2.80;;
39140;SDS011;24875;48.436;10.298;2024-02-26T01:06:32;5.50;;;2.70;;
39140;SDS011;24875;48.436;10.298;2024-02-26T01:08:58;4.90;;;2.90;;
39140;SDS011;24875;48.436;10.298;2024-02-26T01:11:25;4.03;;;2.23;;
39140;SDS011;24875;48.436;10.298;2024-02-26T01:13:52;5.43;;;2.73;;
39140;SDS011;24875;48.436;10.298;2024-02-26T01:16:22;8.90;;;3.33;;
39140;SDS011;24875;48.436;10.298;2024-02-26T01:18:49;6.33;;;3.43;;
39140;SDS011;24875;48.436;10.298;2024-02-26T01:21:16;3.93;;;2.17;;
39140;SDS011;24875;48.436;10.298;2024-02-26T01:23:42;6.07;;;2.63;;
39140;SDS011;24875;48.436;10.298;2024-02-26T01:26:09;5.73;;;2.53;;
39140;SDS011;24875;48.436;10.298;2024-02-26T01:28:35;6.40;;;2.90;;
39140;SDS011;24875;48.436;10.298;2024-02-26T01:31:02;6.33;;;3.10;;
39140;SDS011;24875;48.436;10.298;2024-02-26T01:33:32;5.70;;;2.87;;
39140;SDS011;24875;48.436;10.298;2024-02-26T01:35:58;5.70;;;3.07;;
39140;SDS011;24875;48.436;10.298;2024-02-26T01:38:25;5.47;;;2.60;;
39140;SDS011;24875;48.436;10.298;2024-02-26T01:40:52;5.13;;;2.97;;
39140;SDS011;24875;48.436;10.298;2024-02-26T01:43:19;8.20;;;3.27;;
39140;SDS011;24875;48.436;10.298;2024-02-26T01:45:45;5.67;;;2.97;;
39140;SDS011;24875;48.436;10.298;2024-02-26T01:48:12;5.40;;;2.77;;
39140;SDS011;24875;48.436;10.298;2024-02-26T01:50:40;6.60;;;3.63;;
39140;SDS011;24875;48.436;10.298;2024-02-26T01:53:07;6.63;;;3.23;;
39140;SDS011;24875;48.436;10.298;2024-02-26T01:55:35;5.07;;;2.97;;
39140;SDS011;24875;48.436;10.298;2024-02-26T01:58:02;6.40;;;2.90;;
39140;SDS011;24875;48.436;10.298;2024-02-26T02:00:28;7.07;;;3.43;;
39140;SDS011;24875;48.436;10.298;2024-02-26T02:02:55;6.13;;;3.03;;
39140;SDS011;24875;48.436;10.298;2024-02-26T02:05:22;5.87;;;3.00;;
39140;SDS011;24875;48.436;10.298;2024-02-26T02:07:50;7.30;;;3.00;;
39140;SDS011;24875;48.436;10.298;2024-02-26T02:10:17;7.90;;;3.57;;
39140;SDS011;24875;48.436;10.298;2024-02-26T02:12:47;8.10;;;3.13;;
39140;SDS011;24875;48.436;10.298;2024-02-26T02:15:14;5.83;;;3.03;;
39140;SDS011;24875;48.436;10.298;2024-02-26T02:17:41;6.20;;;3.10;;
39140;SDS011;24875;48.436;10.298;2024-02-26T02:20:08;7.33;;;3.27;;
39140;SDS011;24875;48.436;10.298;2024-02-26T02:22:36;6.10;;;3.37;;
39140;SDS011;24875;48.436;10.298;2024-02-26T02:25:03;7.80;;;3.83;;
39140;SDS011;24875;48.436;10.298;2024-02-26T02:27:31;6.17;;;3.13;;
39140;SDS011;24875;48.436;10.298;2024-02-26T02:29:57;5.20;;;2.53;;
39140;SDS011;24875;48.436;10.298;2024-02-26T02:32:24;10.83;;;3.47;;
39140;SDS011;24875;48.436;10.298;2024-02-26T02:34:51;6.10;;;3.20;;
39140;SDS011;24875;48.436;10.298;2024-02-26T02:37:18;9.30;;;3.23;;
39140;SDS011;24875;48.436;10.298;2024-02-26T02:39:46;5.47;;;2.93;;
39140;SDS011;24875;48.436;10.298;2024-02-26T02:42:13;5.93;;;3.20;;
39140;SDS011;24875;48.436;10.298;2024-02-26T02:44:39;4.67;;;2.93;;
39140;SDS011;24875;48.436;10.298;2024-02-26T02:47:06;5.50;;;3.20;;
39140;SDS011;24875;48.436;10.298;2024-02-26T02:49:32;8.30;;;3.60;;
39140;SDS011;24875;48.436;10.298;2024-02-26T02:51:59;6.13;;;3.17;;
39140;SDS011;24875;48.436;10.298;2024-02-26T02:54:26;6.90;;;3.23;;
39140;SDS011;24875;48.436;10.298;2024-02-26T02:56:54;8.93;;;3.53;;
39140;SDS011;24875;48.436;10.298;2024-02-26T02:59:20;6.87;;;3.40;;
39140;SDS011;24875;48.436;10.298;2024-02-26T03:01:47;7.60;;;3.30;;
39140;SDS011;24875;48.436;10.298;2024-02-26T03:04:13;7.27;;;3.70;;
39140;SDS011;24875;48.436;10.298;2024-02-26T03:06:40;8.17;;;3.73;;
39140;SDS011;24875;48.436;10.298;2024-02-26T03:09:06;7.57;;;4.03;;
39140;SDS011;24875;48.436;10.298;2024-02-26T03:11:33;6.57;;;3.47;;
39140;SDS011;24875;48.436;10.298;2024-02-26T03:14:01;10.23;;;4.17;;
39140;SDS011;24875;48.436;10.298;2024-02-26T03:16:27;10.07;;;4.50;;
39140;SDS011;24875;48.436;10.298;2024-02-26T03:18:54;9.27;;;4.40;;
39140;SDS011;24875;48.436;10.298;2024-02-26T03:21:20;9.17;;;3.60;;
39140;SDS011;24875;48.436;10.298;2024-02-26T03:23:47;9.07;;;4.17;;
39140;SDS011;24875;48.436;10.298;2024-02-26T03:26:14;10.33;;;4.80;;
39140;SDS011;24875;48.436;10.298;2024-02-26T03:28:40;9.40;;;3.90;;
39140;SDS011;24875;48.436;10.298;2024-02-26T03:31:08;9.63;;;4.03;;
39140;SDS011;24875;48.436;10.298;2024-02-26T03:33:35;10.03;;;4.30;;
39140;SDS011;24875;48.436;10.298;2024-02-26T03:36:02;11.53;;;4.10;;
39140;SDS011;24875;48.436;10.298;2024-02-26T03:38:29;9.20;;;4.20;;
39140;SDS011;24875;48.436;10.298;2024-02-26T03:40:56;9.47;;;3.67;;
39140;SDS011;24875;48.436;10.298;2024-02-26T03:43:22;11.20;;;4.60;;
39140;SDS011;24875;48.436;10.298;2024-02-26T03:45:49;12.90;;;4.70;;
39140;SDS011;24875;48.436;10.298;2024-02-26T03:48:17;12.17;;;5.00;;
39140;SDS011;24875;48.436;10.298;2024-02-26T03:50:43;10.43;;;4.27;;
39140;SDS011;24875;48.436;10.298;2024-02-26T03:53:10;12.63;;;5.03;;
39140;SDS011;24875;48.436;10.298;2024-02-26T03:55:37;10.47;;;4.53;;
39140;SDS011;24875;48.436;10.298;2024-02-26T03:58:06;9.87;;;5.23;;
39140;SDS011;24875;48.436;10.298;2024-02-26T04:00:33;12.50;;;4.57;;
39140;SDS011;24875;48.436;10.298;2024-02-26T04:02:59;11.07;;;4.60;;
39140;SDS011;24875;48.436;10.298;2024-02-26T04:05:27;12.43;;;4.93;;
39140;SDS011;24875;48.436;10.298;2024-02-26T04:07:54;14.57;;;4.90;;
39140;SDS011;24875;48.436;10.298;2024-02-26T04:10:20;10.33;;;4.73;;
39140;SDS011;24875;48.436;10.298;2024-02-26T04:12:47;12.13;;;4.73;;
39140;SDS011;24875;48.436;10.298;2024-02-26T04:15:13;13.10;;;4.30;;
39140;SDS011;24875;48.436;10.298;2024-02-26T04:17:40;12.97;;;4.93;;
39140;SDS011;24875;48.436;10.298;2024-02-26T04:20:07;10.30;;;4.30;;
39140;SDS011;24875;48.436;10.298;2024-02-26T04:22:40;15.97;;;4.47;;
39140;SDS011;24875;48.436;10.298;2024-02-26T04:25:06;18.50;;;5.27;;
39140;SDS011;24875;48.436;10.298;2024-02-26T04:27:34;11.63;;;5.17;;
39140;SDS011;24875;48.436;10.298;2024-02-26T04:30:00;15.77;;;5.30;;
39140;SDS011;24875;48.436;10.298;2024-02-26T04:32:27;12.60;;;5.47;;
39140;SDS011;24875;48.436;10.298;2024-02-26T04:34:53;12.53;;;5.57;;
39140;SDS011;24875;48.436;10.298;2024-02-26T04:37:20;12.70;;;5.07;;
39140;SDS011;24875;48.436;10.298;2024-02-26T04:39:48;12.43;;;5.50;;
39140;SDS011;24875;48.436;10.298;2024-02-26T04:42:14;13.33;;;6.03;;
39140;SDS011;24875;48.436;10.298;2024-02-26T04:44:41;12.67;;;4.87;;
39140;SDS011;24875;48.436;10.298;2024-02-26T04:47:07;13.47;;;5.47;;
39140;SDS011;24875;48.436;10.298;2024-02-26T04:49:34;13.07;;;5.33;;
39140;SDS011;24875;48.436;10.298;2024-02-26T04:52:00;12.13;;;5.23;;
39140;SDS011;24875;48.436;10.298;2024-02-26T04:54:27;17.53;;;6.60;;
39140;SDS011;24875;48.436;10.298;2024-02-26T04:56:54;13.80;;;6.30;;
39140;SDS011;24875;48.436;10.298;2024-02-26T04:59:21;15.93;;;6.03;;
39140;SDS011;24875;48.436;10.298;2024-02-26T05:01:47;15.07;;;6.00;;
39140;SDS011;24875;48.436;10.298;2024-02-26T05:04:16;16.87;;;6.47;;
39140;SDS011;24875;48.436;10.298;2024-02-26T05:06:42;11.73;;;4.90;;
39140;SDS011;24875;48.436;10.298;2024-02-26T05:09:09;16.87;;;6.53;;
39140;SDS011;24875;48.436;10.298;2024-02-26T05:11:35;17.03;;;5.93;;
39140;SDS011;24875;48.436;10.298;2024-02-26T05:14:03;16.50;;;5.67;;
39140;SDS011;24875;48.436;10.298;2024-02-26T05:16:30;17.90;;;6.90;;
39140;SDS011;24875;48.436;10.298;2024-02-26T05:18:57;17.97;;;6.83;;
39140;SDS011;24875;48.436;10.298;2024-02-26T05:21:23;15.37;;;6.67;;
39140;SDS011;24875;48.436;10.298;2024-02-26T05:23:50;16.83;;;6.03;;
39140;SDS011;24875;48.436;10.298;2024-02-26T05:26:19;16.37;;;6.37;;
39140;SDS011;24875;48.436;10.298;2024-02-26T05:28:46;10.80;;;4.87;;
39140;SDS011;24875;48.436;10.298;2024-02-26T05:31:13;13.17;;;5.60;;
39140;SDS011;24875;48.436;10.298;2024-02-26T05:33:40;15.00;;;5.93;;
39140;SDS011;24875;48.436;10.298;2024-02-26T05:36:07;16.10;;;6.73;;
39140;SDS011;24875;48.436;10.298;2024-02-26T05:38:33;11.73;;;4.60;;
39140;SDS011;24875;48.436;10.298;2024-02-26T05:41:00;19.00;;;6.50;;
39140;SDS011;24875;48.436;10.298;2024-02-26T05:43:27;14.70;;;5.33;;
39140;SDS011;24875;48.436;10.298;2024-02-26T05:45:54;14.50;;;5.47;;
39140;SDS011;24875;48.436;10.298;2024-02-26T05:48:22;12.53;;;5.80;;
39140;SDS011;24875;48.436;10.298;2024-02-26T05:50:48;13.50;;;6.10;;
39140;SDS011;24875;48.436;10.298;2024-02-26T05:53:15;20.47;;;6.30;;
39140;SDS011;24875;48.436;10.298;2024-02-26T05:55:42;14.13;;;6.60;;
39140;SDS011;24875;48.436;10.298;2024-02-26T05:58:08;15.10;;;6.33;;
39140;SDS011;24875;48.436;10.298;2024-02-26T06:00:35;14.40;;;5.67;;
39140;SDS011;24875;48.436;10.298;2024-02-26T06:03:01;19.37;;;7.03;;
39140;SDS011;24875;48.436;10.298;2024-02-26T06:05:29;16.23;;;6.63;;
39140;SDS011;24875;48.436;10.298;2024-02-26T06:07:55;18.43;;;6.93;;
39140;SDS011;24875;48.436;10.298;2024-02-26T06:10:22;14.60;;;5.63;;
39140;SDS011;24875;48.436;10.298;2024-02-26T06:12:48;20.10;;;6.97;;
39140;SDS011;24875;48.436;10.298;2024-02-26T06:15:15;16.70;;;6.30;;
39140;SDS011;24875;48.436;10.298;2024-02-26T06:17:42;16.73;;;6.07;;
39140;SDS011;24875;48.436;10.298;2024-02-26T06:20:08;15.37;;;6.83;;
39140;SDS011;24875;48.436;10.298;2024-02-26T06:22:39;18.03;;;5.83;;
39140;SDS011;24875;48.436;10.298;2024-02-26T06:25:06;14.00;;;5.87;;
39140;SDS011;24875;48.436;10.298;2024-02-26T06:27:34;22.87;;;7.43;;
39140;SDS011;24875;48.436;10.298;2024-02-26T06:30:00;16.57;;;6.67;;
39140;SDS011;24875;48.436;10.298;2024-02-26T06:32:27;20.33;;;6.47;;
39140;SDS011;24875;48.436;10.298;2024-02-26T06:34:54;14.63;;;5.70;;
39140;SDS011;24875;48.436;10.298;2024-02-26T06:37:21;14.93;;;6.27;;
39140;SDS011;24875;48.436;10.298;2024-02-26T06:39:48;15.87;;;6.87;;
39140;SDS011;24875;48.436;10.298;2024-02-26T06:42:17;18.27;;;7.57;;
39140;SDS011;24875;48.436;10.298;2024-02-26T06:44:43;18.87;;;6.73;;
39140;SDS011;24875;48.436;10.298;2024-02-26T06:47:10;16.90;;;5.73;;
39140;SDS011;24875;48.436;10.298;2024-02-26T06:49:36;12.20;;;5.63;;
39140;SDS011;24875;48.436;10.298;2024-02-26T06:52:03;12.20;;;6.00;;
39140;SDS011;24875;48.436;10.298;2024-02-26T06:54:31;13.13;;;5.10;;
39140;SDS011;24875;48.436;10.298;2024-02-26T06:56:59;15.90;;;5.63;;
39140;SDS011;24875;48.436;10.298;2024-02-26T06:59:25;14.77;;;5.20;;
39140;SDS011;24875;48.436;10.298;2024-02-26T07:01:52;15.97;;;6.73;;
39140;SDS011;24875;48.436;10.298;2024-02-26T07:04:19;16.50;;;6.80;;
39140;SDS011;24875;48.436;10.298;2024-02-26T07:06:46;19.53;;;6.90;;
39140;SDS011;24875;48.436;10.298;2024-02-26T07:09:13;14.83;;;6.10;;
39140;SDS011;24875;48.436;10.298;2024-02-26T07:11:40;15.47;;;6.63;;
39140;SDS011;24875;48.436;10.298;2024-02-26T07:14:10;15.87;;;6.07;;
39140;SDS011;24875;48.436;10.298;2024-02-26T07:16:36;16.47;;;5.93;;
39140;SDS011;24875;48.436;10.298;2024-02-26T07:19:03;15.40;;;6.40;;
39140;SDS011;24875;48.436;10.298;2024-02-26T07:21:30;14.63;;;6.70;;
39140;SDS011;24875;48.436;10.298;2024-02-26T07:23:56;17.27;;;6.40;;
39140;SDS011;24875;48.436;10.298;2024-02-26T07:26:23;15.27;;;6.47;;
39140;SDS011;24875;48.436;10.298;2024-02-26T07:28:51;18.10;;;6.70;;
39140;SDS011;24875;48.436;10.298;2024-02-26T07:31:19;19.87;;;6.50;;
39140;SDS011;24875;48.436;10.298;2024-02-26T07:33:45;12.17;;;5.73;;
39140;SDS011;24875;48.436;10.298;2024-02-26T07:36:12;18.30;;;7.60;;
39140;SDS011;24875;48.436;10.298;2024-02-26T07:38:38;12.50;;;5.40;;
39140;SDS011;24875;48.436;10.298;2024-02-26T07:41:05;16.93;;;6.53;;
39140;SDS011;24875;48.436;10.298;2024-02-26T07:43:31;17.77;;;6.53;;
39140;SDS011;24875;48.436;10.298;2024-02-26T07:45:58;17.37;;;6.13;;
39140;SDS011;24875;48.436;10.298;2024-02-26T07:48:26;17.30;;;5.93;;
39140;SDS011;24875;48.436;10.298;2024-02-26T07:50:52;14.07;;;6.57;;
39140;SDS011;24875;48.436;10.298;2024-02-26T07:53:19;16.27;;;6.40;;
39140;SDS011;24875;48.436;10.298;2024-02-26T07:55:45;12.83;;;5.30;;
39140;SDS011;24875;48.436;10.298;2024-02-26T07:58:12;14.90;;;5.53;;
39140;SDS011;24875;48.436;10.298;2024-02-26T08:00:37;12.37;;;6.27;;
39140;SDS011;24875;48.436;10.298;2024-02-26T08:03:04;16.83;;;5.97;;
39140;SDS011;24875;48.436;10.298;2024-02-26T08:05:32;14.73;;;6.33;;
39140;SDS011;24875;48.436;10.298;2024-02-26T08:07:59;13.43;;;5.20;;
39140;SDS011;24875;48.436;10.298;2024-02-26T08:10:25;18.53;;;5.87;;
39140;SDS011;24875;48.436;10.298;2024-02-26T08:12:51;16.23;;;5.80;;
39140;SDS011;24875;48.436;10.298;2024-02-26T08:15:18;12.77;;;5.83;;
39140;SDS011;24875;48.436;10.298;2024-02-26T08:17:44;13.33;;;5.17;;
39140;SDS011;24875;48.436;10.298;2024-02-26T08:20:12;13.70;;;5.70;;
39140;SDS011;24875;48.436;10.298;2024-02-26T08:22:40;16.43;;;5.70;;
39140;SDS011;24875;48.436;10.298;2024-02-26T08:25:07;11.17;;;4.77;;
39140;SDS011;24875;48.436;10.298;2024-02-26T08:27:35;12.10;;;4.73;;
39140;SDS011;24875;48.436;10.298;2024-02-26T08:30:01;13.30;;;4.93;;
39140;SDS011;24875;48.436;10.298;2024-02-26T08:32:28;12.27;;;4.73;;
39140;SDS011;24875;48.436;10.298;2024-02-26T08:34:54;10.17;;;5.20;;
39140;SDS011;24875;48.436;10.298;2024-02-26T08:37:21;13.83;;;4.83;;
39140;SDS011;24875;48.436;10.298;2024-02-26T08:39:48;11.23;;;4.87;;
39140;SDS011;24875;48.436;10.298;2024-02-26T08:42:15;8.93;;;3.90;;
39140;SDS011;24875;48.436;10.298;2024-02-26T08:44:41;11.37;;;4.93;;
39140;SDS011;24875;48.436;10.298;2024-02-26T08:47:08;11.87;;;5.27;;
39140;SDS011;24875;48.436;10.298;2024-02-26T08:49:34;9.70;;;4.27;;
39140;SDS011;24875;48.436;10.298;2024-02-26T08:52:01;13.87;;;5.30;;
39140;SDS011;24875;48.436;10.298;2024-02-26T08:54:27;11.03;;;4.87;;
39140;SDS011;24875;48.436;10.298;2024-02-26T08:56:55;10.63;;;4.57;;
39140;SDS011;24875;48.436;10.298;2024-02-26T08:59:22;9.73;;;4.77;;
39140;SDS011;24875;48.436;10.298;2024-02-26T09:01:48;11.03;;;4.80;;
39140;SDS011;24875;48.436;10.298;2024-02-26T09:04:15;10.20;;;4.77;;
39140;SDS011;24875;48.436;10.298;2024-02-26T09:06:41;11.90;;;5.30;;
39140;SDS011;24875;48.436;10.298;2024-02-26T09:09:08;8.70;;;4.23;;
39140;SDS011;24875;48.436;10.298;2024-02-26T09:11:34;18.87;;;4.90;;
39140;SDS011;24875;48.436;10.298;2024-02-26T09:14:02;14.00;;;4.40;;
39140;SDS011;24875;48.436;10.298;2024-02-26T09:16:29;6.83;;;3.43;;
39140;SDS011;24875;48.436;10.298;2024-02-26T09:18:56;13.57;;;4.87;;
39140;SDS011;24875;48.436;10.298;2024-02-26T09:21:22;9.87;;;4.00;;
39140;SDS011;24875;48.436;10.298;2024-02-26T09:23:50;9.50;;;4.40;;
39140;SDS011;24875;48.436;10.298;2024-02-26T09:26:16;9.00;;;4.43;;
39140;SDS011;24875;48.436;10.298;2024-02-26T09:28:43;8.37;;;3.63;;
39140;SDS011;24875;48.436;10.298;2024-02-26T09:31:11;11.47;;;4.40;;
39140;SDS011;24875;48.436;10.298;2024-02-26T09:33:37;7.43;;;3.50;;
39140;SDS011;24875;48.436;10.298;2024-02-26T09:36:04;10.80;;;4.60;;
39140;SDS011;24875;48.436;10.298;2024-02-26T09:38:31;10.70;;;4.47;;
39140;SDS011;24875;48.436;10.298;2024-02-26T09:41:02;12.43;;;5.63;;
39140;SDS011;24875;48.436;10.298;2024-02-26T09:43:30;11.00;;;5.10;;
39140;SDS011;24875;48.436;10.298;2024-02-26T09:46:00;13.37;;;4.50;;
39140;SDS011;24875;48.436;10.298;2024-02-26T09:48:28;8.90;;;3.73;;
39140;SDS011;24875;48.436;10.298;2024-02-26T09:50:55;9.90;;;5.00;;
39140;SDS011;24875;48.436;10.298;2024-02-26T09:53:22;8.93;;;4.47;;
39140;SDS011;24875;48.436;10.298;2024-02-26T09:55:49;11.67;;;4.80;;
39140;SDS011;24875;48.436;10.298;2024-02-26T09:58:15;10.07;;;4.70;;
39140;SDS011;24875;48.436;10.298;2024-02-26T10:00:45;12.53;;;5.70;;
39140;SDS011;24875;48.436;10.298;2024-02-26T10:03:17;15.47;;;6.03;;
39140;SDS011;24875;48.436;10.298;2024-02-26T10:05:49;10.60;;;4.57;;
39140;SDS011;24875;48.436;10.298;2024-02-26T10:08:20;11.03;;;5.23;;
39140;SDS011;24875;48.436;10.298;2024-02-26T10:10:47;15.13;;;5.57;;
39140;SDS011;24875;48.436;10.298;2024-02-26T10:13:14;11.07;;;4.80;;
39140;SDS011;24875;48.436;10.298;2024-02-26T10:15:40;12.73;;;5.40;;
39140;SDS011;24875;48.436;10.298;2024-02-26T10:18:07;10.83;;;4.97;;
39140;SDS011;24875;48.436;10.298;2024-02-26T10:20:33;17.07;;;5.20;;
39140;SDS011;24875;48.436;10.298;2024-02-26T10:23:03;10.47;;;4.60;;
39140;SDS011;24875;48.436;10.298;2024-02-26T10:25:30;15.43;;;5.33;;
39140;SDS011;24875;48.436;10.298;2024-02-26T10:27:58;13.83;;;5.10;;
39140;SDS011;24875;48.436;10.298;2024-02-26T10:30:27;10.50;;;4.10;;
39140;SDS011;24875;48.436;10.298;2024-02-26T10:32:54;11.03;;;4.93;;
39140;SDS011;24875;48.436;10.298;2024-02-26T10:35:22;9.67;;;4.77;;
39140;SDS011;24875;48.436;10.298;2024-02-26T10:37:49;14.40;;;5.60;;
39140;SDS011;24875;48.436;10.298;2024-02-26T10:40:19;9.73;;;4.93;;
39140;SDS011;24875;48.436;10.298;2024-02-26T10:42:45;8.57;;;4.20;;
39140;SDS011;24875;48.436;10.298;2024-02-26T10:45:12;11.07;;;5.20;;
39140;SDS011;24875;48.436;10.298;2024-02-26T10:47:39;8.93;;;4.23;;
39140;SDS011;24875;48.436;10.298;2024-02-26T10:50:06;9.07;;;4.53;;
39140;SDS011;24875;48.436;10.298;2024-02-26T10:52:34;7.87;;;3.73;;
39140;SDS011;24875;48.436;10.298;2024-02-26T10:55:03;10.03;;;4.07;;
39140;SDS011;24875;48.436;10.298;2024-02-26T10:57:34;11.10;;;4.80;;
39140;SDS011;24875;48.436;10.298;2024-02-26T11:00:04;11.73;;;3.63;;
39140;SDS011;24875;48.436;10.298;2024-02-26T11:02:35;10.20;;;3.90;;
39140;SDS011;24875;48.436;10.298;2024-02-26T11:05:02;7.63;;;3.33;;
39140;SDS011;24875;48.436;10.298;2024-02-26T11:07:30;11.40;;;4.57;;
39140;SDS011;24875;48.436;10.298;2024-02-26T11:09:57;9.77;;;4.17;;
39140;SDS011;24875;48.436;10.298;2024-02-26T11:12:25;9.20;;;3.93;;
39140;SDS011;24875;48.436;10.298;2024-02-26T11:14:55;11.73;;;3.73;;
39140;SDS011;24875;48.436;10.298;2024-02-26T11:17:23;9.87;;;4.80;;
39140;SDS011;24875;48.436;10.298;2024-02-26T11:19:53;7.37;;;3.50;;
39140;SDS011;24875;48.436;10.298;2024-02-26T11:22:22;9.60;;;3.80;;
39140;SDS011;24875;48.436;10.298;2024-02-26T11:24:51;12.40;;;4.87;;
39140;SDS011;24875;48.436;10.298;2024-02-26T11:27:19;9.27;;;4.33;;
39140;SDS011;24875;48.436;10.298;2024-02-26T11:29:48;10.30;;;3.93;;
39140;SDS011;24875;48.436;10.298;2024-02-26T11:32:19;8.87;;;4.73;;
39140;SDS011;24875;48.436;10.298;2024-02-26T11:34:46;12.03;;;3.63;;
39140;SDS011;24875;48.436;10.298;2024-02-26T11:37:14;7.23;;;3.17;;
39140;SDS011;24875;48.436;10.298;2024-02-26T11:39:41;11.40;;;4.57;;
39140;SDS011;24875;48.436;10.298;2024-02-26T11:42:09;9.00;;;4.10;;
39140;SDS011;24875;48.436;10.298;2024-02-26T11:44:39;9.53;;;4.53;;
39140;SDS011;24875;48.436;10.298;2024-02-26T11:47:10;10.30;;;4.13;;
39140;SDS011;24875;48.436;10.298;2024-02-26T11:49:38;12.13;;;4.17;;
39140;SDS011;24875;48.436;10.298;2024-02-26T11:52:06;13.90;;;4.57;;
39140;SDS011;24875;48.436;10.298;2024-02-26T11:54:38;8.37;;;4.27;;
39140;SDS011;24875;48.436;10.298;2024-02-26T11:57:19;7.20;;;3.43;;
39140;SDS011;24875;48.436;10.298;2024-02-26T11:59:47;9.57;;;3.73;;
39140;SDS011;24875;48.436;10.298;2024-02-26T12:05:14;7.53;;;2.93;;
39140;SDS011;24875;48.436;10.298;2024-02-26T12:07:43;5.53;;;3.33;;
39140;SDS011;24875;48.436;10.298;2024-02-26T12:10:22;8.03;;;3.73;;
39140;SDS011;24875;48.436;10.298;2024-02-26T12:12:52;7.50;;;3.57;;
39140;SDS011;24875;48.436;10.298;2024-02-26T12:15:22;10.23;;;4.43;;
39140;SDS011;24875;48.436;10.298;2024-02-26T12:17:49;8.93;;;3.60;;
39140;SDS011;24875;48.436;10.298;2024-02-26T12:20:18;9.07;;;4.20;;
39140;SDS011;24875;48.436;10.298;2024-02-26T12:22:46;9.93;;;3.30;;
39140;SDS011;24875;48.436;10.298;2024-02-26T12:25:13;7.23;;;3.50;;
39140;SDS011;24875;48.436;10.298;2024-02-26T12:27:40;7.67;;;3.80;;
39140;SDS011;24875;48.436;10.298;2024-02-26T12:30:07;11.10;;;4.47;;
39140;SDS011;24875;48.436;10.298;2024-02-26T12:32:34;9.50;;;4.60;;
39140;SDS011;24875;48.436;10.298;2024-02-26T12:35:01;9.90;;;4.70;;
39140;SDS011;24875;48.436;10.298;2024-02-26T12:37:29;11.30;;;4.30;;
39140;SDS011;24875;48.436;10.298;2024-02-26T12:39:55;7.77;;;3.40;;
39140;SDS011;24875;48.436;10.298;2024-02-26T12:42:22;7.63;;;3.47;;
39140;SDS011;24875;48.436;10.298;2024-02-26T12:44:49;7.30;;;3.60;;
39140;SDS011;24875;48.436;10.298;2024-02-26T12:47:16;6.50;;;3.20;;
39140;SDS011;24875;48.436;10.298;2024-02-26T12:49:47;9.27;;;4.17;;
39140;SDS011;24875;48.436;10.298;2024-02-26T12:52:14;7.50;;;3.53;;
39140;SDS011;24875;48.436;10.298;2024-02-26T12:54:43;8.53;;;3.10;;
39140;SDS011;24875;48.436;10.298;2024-02-26T12:57:10;9.97;;;3.63;;
39140;SDS011;24875;48.436;10.298;2024-02-26T12:59:37;8.67;;;3.40;;
39140;SDS011;24875;48.436;10.298;2024-02-26T13:02:04;6.70;;;3.37;;
39140;SDS011;24875;48.436;10.298;2024-02-26T13:04:31;7.37;;;3.23;;
39140;SDS011;24875;48.436;10.298;2024-02-26T13:06:58;8.13;;;3.47;;
39140;SDS011;24875;48.436;10.298;2024-02-26T13:09:28;6.20;;;3.53;;
39140;SDS011;24875;48.436;10.298;2024-02-26T13:11:59;8.60;;;3.63;;
39140;SDS011;24875;48.436;10.298;2024-02-26T13:14:26;8.67;;;3.57;;
39140;SDS011;24875;48.436;10.298;2024-02-26T13:16:55;6.77;;;3.40;;
39140;SDS011;24875;48.436;10.298;2024-02-26T13:19:22;10.53;;;4.80;;
39140;SDS011;24875;48.436;10.298;2024-02-26T13:21:48;7.87;;;3.07;;
39140;SDS011;24875;48.436;10.298;2024-02-26T13:24:15;7.37;;;3.17;;
39140;SDS011;24875;48.436;10.298;2024-02-26T13:26:43;13.57;;;3.53;;
39140;SDS011;24875;48.436;10.298;2024-02-26T13:29:15;10.60;;;4.27;;
39140;SDS011;24875;48.436;10.298;2024-02-26T13:31:43;8.50;;;3.60;;
39140;SDS011;24875;48.436;10.298;2024-02-26T13:34:09;11.00;;;3.73;;
39140;SDS011;24875;48.436;10.298;2024-02-26T13:36:36;8.67;;;3.63;;
39140;SDS011;24875;48.436;10.298;2024-02-26T13:39:02;9.07;;;4.37;;
39140;SDS011;24875;48.436;10.298;2024-02-26T13:41:30;8.73;;;4.00;;
39140;SDS011;24875;48.436;10.298;2024-02-26T13:43:57;8.13;;;3.90;;
39140;SDS011;24875;48.436;10.298;2024-02-26T13:46:25;7.43;;;3.97;;
39140;SDS011;24875;48.436;10.298;2024-02-26T13:48:51;11.83;;;3.67;;
39140;SDS011;24875;48.436;10.298;2024-02-26T13:51:19;6.53;;;3.37;;
39140;SDS011;24875;48.436;10.298;2024-02-26T13:53:46;9.60;;;4.03;;
39140;SDS011;24875;48.436;10.298;2024-02-26T13:56:13;9.33;;;4.33;;
39140;SDS011;24875;48.436;10.298;2024-02-26T13:58:39;9.30;;;3.23;;
39140;SDS011;24875;48.436;10.298;2024-02-26T14:01:06;8.20;;;3.40;;
39140;SDS011;24875;48.436;10.298;2024-02-26T14:03:34;8.10;;;4.17;;
39140;SDS011;24875;48.436;10.298;2024-02-26T14:06:00;7.60;;;3.80;;
39140;SDS011;24875;48.436;10.298;2024-02-26T14:08:27;7.80;;;3.97;;
39140;SDS011;24875;48.436;10.298;2024-02-26T14:10:53;9.00;;;4.47;;
39140;SDS011;24875;48.436;10.298;2024-02-26T14:13:20;9.23;;;4.10;;
39140;SDS011;24875;48.436;10.298;2024-02-26T14:15:46;7.47;;;3.03;;
39140;SDS011;24875;48.436;10.298;2024-02-26T14:18:13;9.97;;;4.13;;
39140;SDS011;24875;48.436;10.298;2024-02-26T14:20:41;8.23;;;4.07;;
39140;SDS011;24875;48.436;10.298;2024-02-26T14:23:07;6.60;;;3.30;;
39140;SDS011;24875;48.436;10.298;2024-02-26T14:25:34;9.07;;;3.53;;
39140;SDS011;24875;48.436;10.298;2024-02-26T14:28:01;6.40;;;3.47;;
39140;SDS011;24875;48.436;10.298;2024-02-26T14:30:28;5.93;;;3.10;;